createdAt,value
2022-11-24T00:01:12.564Z,4.99
2022-11-24T00:03:39.308Z,4.99
2022-11-24T00:06:10.976Z,4.98
2022-11-24T00:08:39.875Z,4.96
2022-11-24T00:11:10.860Z,4.98
2022-11-24T00:13:40.818Z,5.03
2022-11-24T00:16:11.927Z,5.02
2022-11-24T00:18:40.957Z,4.99
2022-11-24T00:21:08.262Z,5.00
2022-11-24T00:23:35.564Z,4.99
2022-11-24T00:26:22.430Z,5.00
2022-11-24T00:28:55.551Z,4.98
2022-11-24T00:31:25.073Z,4.98
2022-11-24T00:33:54.079Z,4.94
2022-11-24T00:36:23.083Z,4.91
2022-11-24T00:39:01.428Z,4.89
2022-11-24T00:41:29.204Z,4.88
2022-11-24T00:43:56.272Z,4.81
2022-11-24T00:46:24.173Z,4.77
2022-11-24T00:48:51.438Z,4.75
2022-11-24T00:51:19.526Z,4.75
2022-11-24T00:53:46.188Z,4.73
2022-11-24T00:56:13.384Z,4.70
2022-11-24T00:58:40.507Z,4.70
2022-11-24T01:01:11.376Z,4.67
2022-11-24T01:03:38.458Z,4.62
2022-11-24T01:06:14.096Z,4.60
2022-11-24T01:08:41.953Z,4.59
2022-11-24T01:11:11.048Z,4.65
2022-11-24T01:13:38.769Z,4.69
2022-11-24T01:16:05.786Z,4.72
2022-11-24T01:18:32.655Z,4.71
2022-11-24T01:21:08.621Z,4.67
2022-11-24T01:23:36.914Z,4.67
2022-11-24T01:26:08.429Z,4.66
2022-11-24T01:28:35.402Z,4.67
2022-11-24T01:31:04.637Z,4.68
2022-11-24T01:33:31.646Z,4.68
2022-11-24T01:35:59.335Z,4.70
2022-11-24T01:38:26.856Z,4.71
2022-11-24T01:41:07.209Z,4.73
2022-11-24T01:43:33.981Z,4.75
2022-11-24T01:46:27.900Z,4.70
2022-11-24T01:49:14.718Z,4.64
2022-11-24T01:51:51.925Z,4.63
2022-11-24T01:54:36.490Z,4.59
2022-11-24T01:57:14.220Z,4.59
2022-11-24T01:59:41.354Z,4.65
2022-11-24T02:02:09.011Z,4.64
2022-11-24T02:04:37.144Z,4.69
2022-11-24T02:07:06.971Z,4.70
2022-11-24T02:09:37.751Z,4.68
2022-11-24T02:12:06.210Z,4.63
2022-11-24T02:14:35.649Z,4.61
2022-11-24T02:17:02.520Z,4.58
2022-11-24T02:20:07.429Z,4.61
2022-11-24T02:22:59.567Z,4.58
2022-11-24T02:25:34.957Z,4.56
2022-11-24T02:28:05.410Z,4.60
2022-11-24T02:30:32.306Z,4.58
2022-11-24T02:32:59.241Z,4.59
2022-11-24T02:35:27.742Z,4.61
2022-11-24T02:37:54.715Z,4.58
2022-11-24T02:40:25.469Z,4.58
2022-11-24T02:42:56.637Z,4.60
2022-11-24T02:45:24.366Z,4.62
2022-11-24T02:47:51.018Z,4.61
2022-11-24T02:50:17.679Z,4.61
2022-11-24T02:52:44.349Z,4.58
2022-11-24T02:55:11.115Z,4.60
2022-11-24T02:57:37.792Z,4.59
2022-11-24T03:00:05.061Z,4.64
2022-11-24T03:02:31.844Z,4.65
2022-11-24T03:04:58.681Z,4.64
2022-11-24T03:07:25.423Z,4.65
2022-11-24T03:09:52.049Z,4.68
2022-11-24T03:12:18.843Z,4.71
2022-11-24T03:14:45.455Z,4.70
2022-11-24T03:17:12.843Z,4.69
2022-11-24T03:19:39.494Z,4.72
2022-11-24T03:22:06.247Z,4.73
2022-11-24T03:24:33.239Z,4.75
2022-11-24T03:27:00.217Z,4.75
2022-11-24T03:29:26.913Z,4.76
2022-11-24T03:31:53.599Z,4.78
2022-11-24T03:34:20.290Z,4.77
2022-11-24T03:36:47.082Z,4.79
2022-11-24T03:39:14.023Z,4.75
2022-11-24T03:41:40.662Z,4.75
2022-11-24T03:44:07.298Z,4.77
2022-11-24T03:46:33.968Z,4.78
2022-11-24T03:49:00.708Z,4.74
2022-11-24T03:51:27.352Z,4.74
2022-11-24T03:53:53.972Z,4.73
2022-11-24T03:56:20.721Z,4.74
2022-11-24T03:58:47.362Z,4.72
2022-11-24T04:01:14.122Z,4.69
2022-11-24T04:03:40.905Z,4.68
2022-11-24T04:06:07.523Z,4.68
2022-11-24T04:08:34.186Z,4.68
2022-11-24T04:11:00.983Z,4.66
2022-11-24T04:13:28.733Z,4.65
2022-11-24T04:15:55.440Z,4.65
2022-11-24T04:18:23.035Z,4.67
2022-11-24T04:20:51.091Z,4.64
2022-11-24T04:23:18.558Z,4.66
2022-11-24T04:25:47.578Z,4.61
2022-11-24T04:28:14.231Z,4.61
2022-11-24T04:30:44.849Z,4.57
2022-11-24T04:33:12.378Z,4.58
2022-11-24T04:35:38.979Z,4.58
2022-11-24T04:38:05.661Z,4.55
2022-11-24T04:40:32.348Z,4.57
2022-11-24T04:42:59.047Z,4.56
2022-11-24T04:45:25.806Z,4.54
2022-11-24T04:47:52.435Z,4.53
2022-11-24T04:50:19.080Z,4.52
2022-11-24T04:52:46.019Z,4.48
2022-11-24T04:55:12.659Z,4.44
2022-11-24T04:57:39.574Z,4.42
2022-11-24T05:00:07.541Z,4.40
2022-11-24T05:02:34.194Z,4.38
2022-11-24T05:05:00.913Z,4.36
2022-11-24T05:07:27.639Z,4.32
2022-11-24T05:10:12.636Z,4.31
2022-11-24T05:12:39.589Z,4.27
2022-11-24T05:15:06.943Z,4.27
2022-11-24T05:17:35.937Z,4.24
2022-11-24T05:20:03.687Z,4.28
2022-11-24T05:22:30.416Z,4.27
2022-11-24T05:24:57.316Z,4.23
2022-11-24T05:27:24.208Z,4.29
2022-11-24T05:29:50.827Z,4.30
2022-11-24T05:32:17.480Z,4.37
2022-11-24T05:34:44.075Z,4.42
2022-11-24T05:37:10.670Z,4.49
2022-11-24T05:39:37.466Z,4.55
2022-11-24T05:42:25.393Z,4.56
2022-11-24T05:44:52.857Z,4.58
2022-11-24T05:47:20.430Z,4.59
2022-11-24T05:49:47.498Z,4.58
2022-11-24T05:52:14.422Z,4.60
2022-11-24T05:54:41.090Z,4.61
2022-11-24T05:57:07.730Z,4.66
2022-11-24T05:59:34.362Z,4.70
2022-11-24T06:02:01.157Z,4.77
2022-11-24T06:04:27.911Z,4.84
2022-11-24T06:06:54.595Z,4.92
2022-11-24T06:09:21.318Z,4.96
2022-11-24T06:11:48.613Z,5.03
2022-11-24T06:14:15.373Z,5.10
2022-11-24T06:16:42.147Z,5.13
2022-11-24T06:19:10.701Z,5.16
2022-11-24T06:21:37.636Z,5.20
2022-11-24T06:24:05.540Z,5.23
2022-11-24T06:26:33.283Z,5.26
2022-11-24T06:28:59.937Z,5.30
2022-11-24T06:31:26.800Z,5.31
2022-11-24T06:33:53.714Z,5.37
2022-11-24T06:36:20.512Z,5.43
2022-11-24T06:38:47.172Z,5.48
2022-11-24T06:41:16.000Z,5.53
2022-11-24T06:43:43.077Z,5.56
2022-11-24T06:46:09.847Z,5.59
2022-11-24T06:48:36.742Z,5.60
2022-11-24T06:51:08.684Z,5.60
2022-11-24T06:53:38.358Z,5.59
2022-11-24T06:56:15.833Z,5.56
2022-11-24T06:58:48.181Z,5.50
2022-11-24T07:01:25.972Z,5.46
2022-11-24T07:03:54.007Z,5.47
2022-11-24T07:06:21.805Z,5.46
2022-11-24T07:08:49.490Z,5.46
2022-11-24T07:11:19.035Z,5.43
2022-11-24T07:13:46.586Z,5.38
2022-11-24T07:16:19.288Z,5.35
2022-11-24T07:18:47.547Z,5.31
2022-11-24T07:21:14.733Z,5.28
2022-11-24T07:23:41.776Z,5.23
2022-11-24T07:26:09.855Z,5.23
2022-11-24T07:28:37.606Z,5.19
2022-11-24T07:31:08.833Z,5.18
2022-11-24T07:33:36.015Z,5.13
2022-11-24T07:36:03.972Z,5.11
2022-11-24T07:38:31.767Z,5.07
2022-11-24T07:41:03.652Z,5.06
2022-11-24T07:43:35.530Z,5.07
2022-11-24T07:46:02.913Z,5.04
2022-11-24T07:48:30.180Z,5.09
2022-11-24T07:51:01.002Z,5.09
2022-11-24T07:53:28.697Z,5.14
2022-11-24T07:56:00.517Z,5.17
2022-11-24T07:58:33.246Z,5.19
2022-11-24T08:01:00.911Z,5.24
2022-11-24T08:03:27.795Z,5.27
2022-11-24T08:08:47.898Z,5.31
2022-11-24T08:11:16.868Z,5.31
2022-11-24T08:13:44.120Z,5.36
2022-11-24T08:16:13.613Z,5.38
2022-11-24T08:18:40.938Z,5.40
2022-11-24T08:21:11.832Z,5.41
2022-11-24T08:23:42.202Z,5.43
2022-11-24T08:26:13.783Z,5.46
2022-11-24T08:28:41.033Z,5.50
2022-11-24T08:31:10.594Z,5.55
2022-11-24T08:33:37.927Z,5.58
2022-11-24T08:36:10.296Z,5.60
2022-11-24T08:38:37.362Z,5.63
2022-11-24T08:41:08.434Z,5.62
2022-11-24T08:43:35.376Z,5.66
2022-11-24T08:46:04.913Z,5.64
2022-11-24T08:48:32.206Z,5.68
2022-11-24T08:50:59.799Z,5.67
2022-11-24T08:53:26.476Z,5.71
2022-11-24T08:55:53.229Z,5.71
2022-11-24T08:58:19.922Z,5.74
2022-11-24T09:00:55.198Z,5.77
2022-11-24T09:03:22.174Z,5.81
2022-11-24T09:05:52.929Z,5.82
2022-11-24T09:08:20.726Z,5.85
2022-11-24T09:10:47.446Z,5.90
2022-11-24T09:13:14.141Z,5.94
2022-11-24T09:15:40.770Z,5.95
2022-11-24T09:18:07.413Z,6.00
2022-11-24T09:20:35.008Z,6.03
2022-11-24T09:23:02.912Z,6.05
2022-11-24T09:25:29.559Z,6.09
2022-11-24T09:27:57.203Z,6.12
2022-11-24T09:30:24.002Z,6.18
2022-11-24T09:32:50.663Z,6.23
2022-11-24T09:35:18.080Z,6.27
2022-11-24T09:37:45.783Z,6.28
2022-11-24T09:40:14.773Z,6.34
2022-11-24T09:42:50.664Z,6.40
2022-11-24T09:46:04.371Z,6.46
2022-11-24T09:48:57.043Z,6.54
2022-11-24T09:51:28.846Z,6.64
2022-11-24T09:54:35.876Z,6.76
2022-11-24T09:57:06.370Z,6.96
2022-11-24T09:59:33.343Z,7.09
2022-11-24T10:02:00.344Z,7.21
2022-11-24T10:04:40.112Z,7.30
2022-11-24T10:07:22.771Z,7.38
2022-11-24T10:10:07.582Z,7.46
2022-11-24T10:12:43.541Z,7.53
2022-11-24T10:15:37.397Z,7.63
2022-11-24T10:18:22.312Z,7.76
2022-11-24T10:21:05.622Z,7.85
2022-11-24T10:23:47.411Z,7.94
2022-11-24T10:26:35.821Z,7.98
2022-11-24T10:29:15.173Z,8.03
2022-11-24T10:31:43.719Z,8.05
2022-11-24T10:34:45.562Z,8.08
2022-11-24T10:37:36.241Z,8.09
2022-11-24T10:40:56.425Z,8.10
2022-11-24T10:43:13.053Z,8.13
2022-11-24T10:45:42.305Z,8.17
2022-11-24T10:48:22.226Z,8.20
2022-11-24T10:50:49.113Z,8.23
2022-11-24T10:53:28.229Z,8.29
2022-11-24T10:56:16.450Z,8.33
2022-11-24T10:58:43.116Z,8.38
2022-11-24T11:01:12.869Z,8.43
2022-11-24T11:03:57.637Z,8.48
2022-11-24T11:06:28.870Z,8.51
2022-11-24T11:09:08.573Z,8.54
2022-11-24T11:11:37.025Z,8.55
2022-11-24T11:14:10.622Z,8.59
2022-11-24T11:16:46.556Z,8.64
2022-11-24T11:19:58.551Z,8.68
2022-11-24T11:22:23.895Z,8.71
2022-11-24T11:25:04.470Z,8.73
2022-11-24T11:27:32.202Z,8.77
2022-11-24T11:36:11.294Z,8.94
2022-11-24T11:38:41.031Z,8.99
2022-11-24T11:41:19.328Z,9.06
2022-11-24T11:43:50.601Z,9.14
2022-11-24T11:46:17.537Z,9.21
2022-11-24T11:48:48.165Z,9.26
2022-11-24T11:51:34.256Z,9.35
2022-11-24T11:54:17.247Z,9.45
2022-11-24T11:56:45.891Z,9.53
2022-11-24T11:59:42.971Z,9.60
2022-11-24T12:02:18.986Z,9.65
2022-11-24T12:04:48.679Z,9.68
2022-11-24T12:07:36.803Z,9.70
2022-11-24T12:10:36.815Z,9.75
2022-11-24T12:13:28.751Z,9.78
2022-11-24T12:15:59.319Z,9.85
2022-11-24T12:18:56.641Z,9.87
2022-11-24T12:21:32.020Z,9.90
2022-11-24T12:24:35.932Z,9.99
2022-11-24T12:27:46.523Z,10.12
2022-11-24T12:30:18.470Z,10.19
2022-11-24T12:32:51.221Z,10.16
2022-11-24T12:35:29.886Z,10.14
2022-11-24T12:38:14.035Z,10.13
2022-11-24T12:44:41.304Z,10.04
2022-11-24T12:47:16.927Z,10.06
2022-11-24T12:50:01.987Z,10.05
2022-11-24T12:52:35.124Z,10.00
2022-11-24T12:55:04.748Z,9.96
2022-11-24T12:57:41.280Z,9.94
2022-11-24T13:00:16.101Z,9.90
2022-11-24T13:02:54.201Z,9.91
2022-11-24T13:05:35.750Z,9.86
2022-11-24T13:08:04.423Z,9.85
2022-11-24T13:10:55.224Z,9.86
2022-11-24T13:13:27.484Z,9.82
2022-11-24T13:18:49.504Z,9.76
2022-11-24T13:21:31.052Z,9.75
2022-11-24T13:23:59.923Z,9.71
2022-11-24T13:26:43.789Z,9.66
2022-11-24T13:29:28.838Z,9.64
2022-11-24T13:32:17.760Z,9.60
2022-11-24T13:34:45.702Z,9.51
2022-11-24T13:37:34.602Z,9.48
2022-11-24T13:40:31.738Z,9.41
2022-11-24T13:43:01.206Z,9.40
2022-11-24T13:45:40.678Z,9.40
2022-11-24T13:48:21.370Z,9.36
2022-11-24T13:50:51.575Z,9.35
2022-11-24T13:53:45.775Z,9.37
2022-11-24T13:56:12.406Z,9.34
2022-11-24T13:58:52.376Z,9.32
2022-11-24T14:01:20.360Z,9.31
2022-11-24T14:04:33.076Z,9.36
2022-11-24T14:07:09.221Z,9.36
2022-11-24T14:09:50.170Z,9.39
2022-11-24T14:12:23.893Z,9.39
2022-11-24T14:14:52.963Z,9.36
2022-11-24T14:17:28.500Z,9.34
2022-11-24T14:19:57.197Z,9.34
2022-11-24T14:22:36.637Z,9.36
2022-11-24T14:25:04.160Z,8.72
2022-11-24T14:27:34.952Z,7.83
2022-11-24T14:30:32.097Z,7.50
2022-11-24T14:33:01.598Z,7.41
2022-11-24T14:35:42.593Z,7.42
2022-11-24T14:38:12.588Z,7.37
2022-11-24T14:40:51.865Z,7.42
2022-11-24T14:43:24.547Z,7.43
2022-11-24T14:45:58.237Z,7.46
2022-11-24T14:48:36.161Z,7.48
2022-11-24T14:51:31.426Z,7.47
2022-11-24T14:54:01.363Z,7.46
2022-11-24T14:56:57.276Z,7.48
2022-11-24T14:59:27.170Z,7.48
2022-11-24T15:01:54.445Z,7.49
2022-11-24T15:04:54.824Z,7.39
2022-11-24T15:07:31.881Z,7.34
2022-11-24T15:10:00.802Z,7.36
2022-11-24T15:12:31.518Z,7.37
2022-11-24T15:15:02.651Z,7.41
2022-11-24T15:17:30.414Z,7.46
2022-11-24T15:20:20.621Z,7.48
2022-11-24T15:22:47.218Z,7.50
2022-11-24T15:25:32.773Z,7.53
2022-11-24T15:28:00.704Z,7.56
2022-11-24T15:30:28.592Z,7.59
2022-11-24T15:32:58.044Z,7.60
2022-11-24T15:35:26.917Z,7.63
2022-11-24T15:37:53.676Z,7.63
2022-11-24T15:40:20.686Z,7.60
2022-11-24T15:42:52.395Z,7.56
2022-11-24T15:45:20.559Z,7.52
2022-11-24T15:47:47.735Z,7.49
2022-11-24T15:50:15.021Z,7.45
2022-11-24T15:52:44.193Z,7.42
2022-11-24T15:55:20.991Z,7.38
2022-11-24T15:57:48.934Z,7.36
2022-11-24T16:00:18.352Z,7.38
2022-11-24T16:02:45.318Z,7.37
2022-11-24T16:05:14.563Z,7.36
2022-11-24T16:07:42.205Z,7.35
2022-11-24T16:10:22.048Z,7.37
2022-11-24T16:12:48.895Z,7.38
2022-11-24T16:15:15.700Z,7.38
2022-11-24T16:17:42.303Z,7.38
2022-11-24T16:20:09.380Z,7.38
2022-11-24T16:22:36.041Z,7.35
2022-11-24T16:25:04.210Z,7.30
2022-11-24T16:27:31.639Z,7.26
2022-11-24T16:29:58.375Z,7.25
2022-11-24T16:32:25.604Z,7.25
2022-11-24T16:34:52.867Z,7.25
2022-11-24T16:37:22.489Z,7.28
2022-11-24T16:39:50.350Z,7.33
2022-11-24T16:42:17.550Z,7.34
2022-11-24T16:44:44.234Z,7.33
2022-11-24T16:47:12.924Z,7.33
2022-11-24T16:49:39.817Z,7.29
2022-11-24T16:52:08.581Z,7.25
2022-11-24T16:54:35.319Z,7.26
2022-11-24T16:57:02.342Z,7.19
2022-11-24T16:59:28.977Z,7.15
2022-11-24T17:01:55.788Z,7.05
2022-11-24T17:04:22.530Z,7.03
2022-11-24T17:06:49.164Z,7.01
2022-11-24T17:09:18.977Z,7.00
2022-11-24T17:11:45.721Z,6.96
2022-11-24T17:14:12.749Z,6.92
2022-11-24T17:16:39.660Z,6.86
2022-11-24T17:19:06.325Z,6.82
2022-11-24T17:21:33.227Z,6.80
2022-11-24T17:24:02.976Z,6.78
2022-11-24T17:26:29.695Z,6.79
2022-11-24T17:28:56.970Z,6.77
2022-11-24T17:31:26.293Z,6.75
2022-11-24T17:33:55.399Z,6.72
2022-11-24T17:36:22.860Z,6.69
2022-11-24T17:38:49.652Z,6.64
2022-11-24T17:41:21.352Z,6.59
2022-11-24T17:43:53.243Z,6.56
2022-11-24T17:46:20.207Z,6.53
2022-11-24T17:48:47.163Z,6.54
2022-11-24T17:51:19.264Z,6.54
2022-11-24T17:53:49.307Z,6.59
2022-11-24T17:56:18.592Z,6.58
2022-11-24T17:58:45.326Z,6.61
2022-11-24T18:01:14.817Z,6.61
2022-11-24T18:03:42.316Z,6.56
2022-11-24T18:06:13.096Z,6.51
2022-11-24T18:08:42.595Z,6.49
2022-11-24T18:11:12.934Z,6.45
2022-11-24T18:13:56.657Z,6.41
2022-11-24T18:16:30.001Z,6.40
2022-11-24T18:19:14.599Z,6.33
2022-11-24T18:21:43.790Z,6.29
2022-11-24T18:24:11.811Z,6.25
2022-11-24T18:26:40.010Z,6.25
2022-11-24T18:29:06.680Z,6.25
2022-11-24T18:31:35.497Z,6.23
2022-11-24T18:34:03.508Z,6.22
2022-11-24T18:36:30.896Z,6.18
2022-11-24T18:39:04.875Z,6.19
2022-11-24T18:41:31.951Z,6.13
2022-11-24T18:44:02.289Z,6.10
2022-11-24T18:46:29.187Z,6.09
2022-11-24T18:48:55.804Z,6.05
2022-11-24T18:51:23.580Z,6.02
2022-11-24T18:53:58.077Z,6.02
2022-11-24T18:56:25.470Z,5.99
2022-11-24T18:58:54.120Z,5.98
2022-11-24T19:01:23.849Z,5.99
2022-11-24T19:03:53.450Z,5.99
2022-11-24T19:06:23.068Z,6.00
2022-11-24T19:08:53.420Z,6.00
2022-11-24T19:11:23.089Z,5.97
2022-11-24T19:13:50.237Z,5.96
2022-11-24T19:16:18.288Z,5.92
2022-11-24T19:18:50.259Z,5.93
2022-11-24T19:21:20.248Z,5.91
2022-11-24T19:23:46.860Z,5.94
2022-11-24T19:26:13.574Z,5.90
2022-11-24T19:28:40.237Z,5.88
2022-11-24T19:31:10.200Z,5.86
2022-11-24T19:33:36.833Z,5.84
2022-11-24T19:36:09.118Z,5.84
2022-11-24T19:38:39.187Z,5.85
2022-11-24T19:41:11.557Z,5.82
2022-11-24T19:43:39.068Z,5.85
2022-11-24T19:46:08.600Z,5.89
2022-11-24T19:48:38.518Z,5.88
2022-11-24T19:51:10.084Z,5.88
2022-11-24T19:53:36.759Z,5.91
2022-11-24T19:56:08.882Z,5.90
2022-11-24T19:58:36.582Z,5.92
2022-11-24T20:01:09.633Z,5.95
2022-11-24T20:03:38.253Z,5.96
2022-11-24T20:06:09.448Z,5.97
2022-11-24T20:08:37.765Z,6.00
2022-11-24T20:11:07.497Z,6.00
2022-11-24T20:13:35.702Z,6.02
2022-11-24T20:16:11.190Z,6.05
2022-11-24T20:18:42.159Z,6.06
2022-11-24T20:21:11.842Z,6.09
2022-11-24T20:23:39.613Z,6.10
2022-11-24T20:26:09.894Z,6.15
2022-11-24T20:28:39.686Z,6.15
2022-11-24T20:31:12.428Z,6.12
2022-11-24T20:33:40.890Z,6.18
2022-11-24T20:36:16.777Z,6.16
2022-11-24T20:38:44.373Z,6.21
2022-11-24T20:41:16.200Z,6.21
2022-11-24T20:43:44.095Z,6.22
2022-11-24T20:46:12.313Z,6.21
2022-11-24T20:48:39.372Z,6.20
2022-11-24T20:51:14.119Z,6.20
2022-11-24T20:53:41.206Z,6.16
2022-11-24T20:56:10.995Z,6.14
2022-11-24T20:58:38.475Z,6.09
2022-11-24T21:01:08.139Z,6.08
2022-11-24T21:03:41.219Z,6.08
2022-11-24T21:06:09.666Z,6.06
2022-11-24T21:08:38.343Z,6.02
2022-11-24T21:11:06.804Z,6.03
2022-11-24T21:13:35.258Z,6.02
2022-11-24T21:16:17.996Z,6.01
2022-11-24T21:18:47.039Z,6.02
2022-11-24T21:21:14.662Z,6.01
2022-11-24T21:23:41.328Z,5.99
2022-11-24T21:26:14.821Z,5.97
2022-11-24T21:28:43.936Z,5.98
2022-11-24T21:31:14.426Z,5.98
2022-11-24T21:33:43.163Z,5.97
2022-11-24T21:36:09.897Z,5.96
2022-11-24T21:38:36.899Z,5.97
2022-11-24T21:41:06.462Z,5.98
2022-11-24T21:43:34.025Z,5.97
2022-11-24T21:46:02.775Z,5.95
2022-11-24T21:48:30.212Z,5.97
2022-11-24T21:51:01.641Z,5.99
2022-11-24T21:53:34.999Z,6.03
2022-11-24T21:56:05.701Z,6.02
2022-11-24T21:58:33.450Z,6.05
2022-11-24T22:01:05.649Z,6.08
2022-11-24T22:03:32.712Z,6.07
2022-11-24T22:06:00.735Z,6.07
2022-11-24T22:08:29.762Z,6.12
2022-11-24T22:11:05.693Z,6.14
2022-11-24T22:13:32.778Z,6.16
2022-11-24T22:16:01.978Z,6.22
2022-11-24T22:18:37.722Z,6.24
2022-11-24T22:21:06.070Z,6.26
2022-11-24T22:23:34.200Z,6.30
2022-11-24T22:26:27.481Z,6.37
2022-11-24T22:28:55.669Z,6.44
2022-11-24T22:31:23.940Z,6.47
2022-11-24T22:33:51.584Z,6.47
2022-11-24T22:36:23.478Z,6.46
2022-11-24T22:38:55.561Z,6.47
2022-11-24T22:41:22.378Z,6.47
2022-11-24T22:43:49.479Z,6.46
2022-11-24T22:46:21.552Z,6.43
2022-11-24T22:48:49.416Z,6.43
2022-11-24T22:51:19.198Z,6.44
2022-11-24T22:53:50.258Z,6.42
2022-11-24T22:56:17.936Z,6.40
2022-11-24T22:58:44.585Z,6.39
2022-11-24T23:01:13.622Z,6.36
2022-11-24T23:03:40.828Z,6.33
2022-11-24T23:06:11.965Z,6.31
2022-11-24T23:08:39.230Z,6.32
2022-11-24T23:11:12.609Z,6.32
2022-11-24T23:13:39.733Z,6.33
2022-11-24T23:16:12.459Z,6.32
2022-11-24T23:18:40.072Z,6.34
2022-11-24T23:21:14.143Z,6.38
2022-11-24T23:23:41.597Z,6.40
2022-11-24T23:26:13.179Z,6.48
2022-11-24T23:28:40.425Z,6.49
2022-11-24T23:31:09.166Z,6.50
2022-11-24T23:33:36.587Z,6.52
2022-11-24T23:36:06.189Z,6.52
2022-11-24T23:38:33.036Z,6.55
2022-11-24T23:41:01.212Z,6.59
2022-11-24T23:43:27.836Z,6.61
2022-11-24T23:45:54.519Z,6.61
2022-11-24T23:48:21.260Z,6.61
2022-11-24T23:50:47.874Z,6.63
2022-11-24T23:53:14.551Z,6.61
2022-11-24T23:55:41.174Z,6.61
2022-11-24T23:58:08.086Z,6.59
